Time;durP1;ratioP1;P1;durP2;ratioP2;P2;SDS_P1;SDS_P2;PMS_P1;PMS_P2;Temp;Humidity;BMP_temperature;BMP_pressure;BME280_temperature;BME280_humidity;BME280_pressure;Samples;Min_cycle;Max_cycle;Signal;HPM_P1;HPM_P2
2021/11/08 00:01:47;;;;;;;12.13;2.72;;;7.60;99.90;;;;;;5066218;28;20020;-42
2021/11/08 00:04:12;;;;;;;9.85;3.20;;;7.60;99.90;;;;;;5053310;28;20735;-41
2021/11/08 00:06:41;;;;;;;8.90;2.60;;;7.60;99.90;;;;;;5065463;28;20094;-42
2021/11/08 00:09:07;;;;;;;11.50;2.97;;;7.50;99.90;;;;;;5053479;28;20021;-43
2021/11/08 00:11:33;;;;;;;7.03;2.40;;;7.50;99.90;;;;;;5065948;28;20107;-43
2021/11/08 00:14:00;;;;;;;8.82;2.70;;;7.40;99.90;;;;;;5054779;28;20033;-43
2021/11/08 00:16:44;;;;;;;9.90;2.60;;;7.40;99.90;;;;;;5063957;28;20021;-44
2021/11/08 00:21:48;;;;;;;11.18;3.40;;;7.30;99.90;;;;;;5064715;28;20041;-44
2021/11/08 00:24:17;;;;;;;7.65;2.67;;;7.30;99.90;;;;;;5056210;28;20399;-44
2021/11/08 00:26:44;;;;;;;15.32;2.97;;;7.20;99.90;;;;;;5062726;28;20028;-42
2021/11/08 00:29:09;;;;;;;8.30;2.60;;;7.20;99.90;;;;;;5057975;28;20609;-43
2021/11/08 00:31:35;;;;;;;9.20;3.33;;;7.10;99.90;;;;;;5055406;28;20075;-43
2021/11/08 00:34:01;;;;;;;6.57;2.35;;;7.10;99.90;;;;;;5049755;28;20119;-41
2021/11/08 00:36:26;;;;;;;7.32;2.65;;;7.10;99.90;;;;;;5053079;28;20409;-43
2021/11/08 00:38:52;;;;;;;10.15;3.08;;;7.00;99.90;;;;;;5048232;28;20065;-43
2021/11/08 00:41:17;;;;;;;10.25;2.85;;;7.00;99.90;;;;;;5055470;28;20017;-42
2021/11/08 00:43:43;;;;;;;6.63;3.10;;;7.00;99.90;;;;;;5046625;28;20590;-42
2021/11/08 00:46:08;;;;;;;8.48;2.97;;;6.90;99.90;;;;;;5057012;28;20025;-43
2021/11/08 00:48:36;;;;;;;8.70;2.97;;;6.90;99.90;;;;;;5045574;28;20028;-42
2021/11/08 00:51:03;;;;;;;9.13;3.20;;;6.90;99.90;;;;;;5057210;28;20017;-42
2021/11/08 00:53:29;;;;;;;8.70;2.88;;;7.00;99.90;;;;;;5045104;28;20116;-47
2021/11/08 00:55:56;;;;;;;7.45;2.80;;;7.00;99.90;;;;;;5057615;28;20063;-43
2021/11/08 00:58:30;;;;;;;10.35;3.05;;;7.00;99.90;;;;;;5049297;28;20029;-43
2021/11/08 01:01:01;;;;;;;10.60;3.38;;;7.00;99.90;;;;;;5061403;28;20443;-43
2021/11/08 01:03:27;;;;;;;7.82;2.85;;;6.90;99.90;;;;;;5048054;28;20100;-42
2021/11/08 01:05:52;;;;;;;10.02;2.65;;;6.90;99.90;;;;;;5060316;28;20511;-44
2021/11/08 01:08:18;;;;;;;8.27;3.10;;;6.90;99.90;;;;;;5049254;28;20062;-44
2021/11/08 01:10:44;;;;;;;8.77;2.72;;;6.80;99.90;;;;;;5057426;28;20104;-42
2021/11/08 01:13:09;;;;;;;7.50;2.75;;;6.70;99.90;;;;;;5052371;28;20032;-43
2021/11/08 01:15:35;;;;;;;6.20;3.10;;;6.70;99.90;;;;;;5054164;28;20033;-42
2021/11/08 01:18:00;;;;;;;9.68;3.05;;;6.70;99.90;;;;;;5054661;28;20057;-44
2021/11/08 01:20:32;;;;;;;11.18;3.50;;;6.60;99.90;;;;;;5051959;28;20396;-42
2021/11/08 01:22:58;;;;;;;7.85;3.25;;;6.60;99.90;;;;;;5056228;28;20021;-44
2021/11/08 01:25:27;;;;;;;9.05;3.10;;;6.60;99.90;;;;;;5050182;28;20109;-42
2021/11/08 01:27:55;;;;;;;10.10;3.20;;;6.50;99.90;;;;;;5058653;28;20033;-42
2021/11/08 01:30:24;;;;;;;11.07;3.30;;;6.50;99.90;;;;;;5049078;28;20067;-42
2021/11/08 01:32:56;;;;;;;6.18;2.58;;;6.50;99.90;;;;;;5052001;28;20021;-43
2021/11/08 01:35:29;;;;;;;8.63;2.92;;;6.40;99.90;;;;;;5049863;28;20039;-43
2021/11/08 01:38:03;;;;;;;7.07;2.75;;;6.40;99.90;;;;;;5059222;28;20469;-41
2021/11/08 01:40:30;;;;;;;6.45;2.90;;;6.40;99.90;;;;;;5049197;28;20057;-43
2021/11/08 01:42:56;;;;;;;8.80;2.97;;;6.40;99.90;;;;;;5059150;28;20013;-42
2021/11/08 01:45:21;;;;;;;13.40;3.53;;;6.50;99.90;;;;;;5047884;28;20017;-42
2021/11/08 01:47:47;;;;;;;9.82;3.30;;;6.50;99.90;;;;;;5059859;28;20632;-43
2021/11/08 01:50:13;;;;;;;10.00;3.30;;;6.40;99.90;;;;;;5048571;28;20025;-42
2021/11/08 01:52:38;;;;;;;11.32;3.47;;;6.40;99.90;;;;;;5059668;28;20033;-43
2021/11/08 01:55:07;;;;;;;8.70;3.08;;;6.30;99.90;;;;;;5048191;28;20086;-43
2021/11/08 01:57:33;;;;;;;8.10;3.22;;;6.30;99.90;;;;;;5052322;28;20139;-43
2021/11/08 02:00:03;;;;;;;9.65;3.10;;;6.30;99.90;;;;;;5066838;28;20028;-42
2021/11/08 02:02:29;;;;;;;10.13;3.53;;;6.20;99.90;;;;;;5058207;28;20029;-43
2021/11/08 02:04:54;;;;;;;7.70;3.03;;;6.20;99.90;;;;;;5064165;28;20637;-42
2021/11/08 02:07:20;;;;;;;9.07;3.08;;;6.20;99.90;;;;;;5060726;28;20021;-41
2021/11/08 02:09:46;;;;;;;6.93;3.72;;;6.20;99.90;;;;;;5061661;28;20036;-42
2021/11/08 02:12:12;;;;;;;6.22;3.45;;;6.10;99.90;;;;;;5063050;28;20024;-41
2021/11/08 02:14:40;;;;;;;7.72;3.20;;;6.10;99.90;;;;;;5058872;28;20033;-43
2021/11/08 02:17:06;;;;;;;6.68;3.72;;;6.10;99.90;;;;;;5066437;28;20036;-42
2021/11/08 02:19:32;;;;;;;9.02;2.60;;;6.00;99.90;;;;;;5055885;28;20021;-42
2021/11/08 02:22:00;;;;;;;8.25;2.83;;;6.00;99.90;;;;;;5066027;28;20029;-43
2021/11/08 02:24:26;;;;;;;7.25;3.17;;;6.00;99.90;;;;;;5055831;28;20829;-40
2021/11/08 02:26:52;;;;;;;8.95;2.80;;;6.00;99.90;;;;;;5066092;28;20092;-42
2021/11/08 02:29:18;;;;;;;8.25;3.08;;;6.00;99.90;;;;;;5055721;28;20540;-40
2021/11/08 02:31:44;;;;;;;10.07;3.50;;;6.00;99.90;;;;;;5060440;28;20040;-43
2021/11/08 02:34:10;;;;;;;6.25;3.17;;;6.00;99.90;;;;;;5059538;28;20044;-43
2021/11/08 02:36:41;;;;;;;8.82;3.40;;;5.90;99.90;;;;;;5047095;28;20025;-41
2021/11/08 02:39:10;;;;;;;9.65;3.33;;;5.90;99.90;;;;;;5059787;28;20091;-43
2021/11/08 02:41:36;;;;;;;7.55;3.40;;;5.90;99.90;;;;;;5046578;28;20025;-42
2021/11/08 02:44:03;;;;;;;10.38;3.25;;;5.80;99.90;;;;;;5057356;28;20472;-42
2021/11/08 02:46:30;;;;;;;9.75;3.10;;;5.80;99.90;;;;;;5048503;28;20167;-42
2021/11/08 02:48:58;;;;;;;8.32;3.38;;;5.80;99.90;;;;;;5055109;28;20020;-43
2021/11/08 02:51:27;;;;;;;8.90;3.40;;;5.80;99.90;;;;;;5050652;28;20025;-43
2021/11/08 02:54:00;;;;;;;6.85;3.22;;;5.80;99.90;;;;;;5052531;28;20025;-42
2021/11/08 02:56:29;;;;;;;8.32;3.17;;;5.70;99.90;;;;;;5051207;28;20396;-42
2021/11/08 02:58:54;;;;;;;8.80;2.75;;;5.70;99.90;;;;;;5052439;28;20024;-42
2021/11/08 03:01:25;;;;;;;11.85;3.22;;;5.70;99.90;;;;;;5053352;28;20039;-42
2021/11/08 03:04:02;;;;;;;8.15;3.00;;;5.70;99.90;;;;;;5049844;28;20048;-42
2021/11/08 03:06:32;;;;;;;7.68;3.00;;;5.70;99.90;;;;;;5054121;28;20025;-43
2021/11/08 03:09:10;;;;;;;9.07;3.53;;;5.70;99.90;;;;;;5048652;28;20235;-44
2021/11/08 03:11:36;;;;;;;7.65;3.42;;;5.70;99.90;;;;;;5053874;28;20062;-42
2021/11/08 03:14:05;;;;;;;12.95;3.33;;;5.70;99.90;;;;;;5048809;28;20032;-42
2021/11/08 03:16:41;;;;;;;4.80;3.10;;;5.70;99.90;;;;;;5055579;28;20820;-42
2021/11/08 03:19:16;;;;;;;11.13;2.70;;;5.70;99.90;;;;;;5047590;28;20043;-43
2021/11/08 03:21:43;;;;;;;12.15;3.05;;;5.70;99.90;;;;;;5046481;28;20024;-43
2021/11/08 03:24:14;;;;;;;8.80;2.70;;;5.70;99.90;;;;;;5064713;28;20036;-43
2021/11/08 03:26:46;;;;;;;9.80;2.83;;;5.70;99.90;;;;;;5054638;28;20044;-42
2021/11/08 03:29:12;;;;;;;7.13;2.70;;;5.80;99.90;;;;;;5064871;28;20039;-43
2021/11/08 03:31:40;;;;;;;3.40;2.90;;;5.80;99.90;;;;;;5049261;28;20108;-42
2021/11/08 03:34:08;;;;;;;5.88;2.70;;;5.80;99.90;;;;;;5046789;28;20033;-45
2021/11/08 03:36:34;;;;;;;16.60;3.10;;;5.80;99.90;;;;;;5054123;28;20116;-44
2021/11/08 03:39:00;;;;;;;6.60;3.28;;;5.80;99.90;;;;;;5066340;28;20027;-43
2021/11/08 03:41:27;;;;;;;5.65;3.38;;;5.80;99.90;;;;;;5053027;28;20021;-42
2021/11/08 03:43:55;;;;;;;12.38;3.67;;;5.70;99.90;;;;;;5065968;28;20078;-43
2021/11/08 03:46:21;;;;;;;8.48;3.35;;;5.80;99.90;;;;;;5053337;28;20036;-43
2021/11/08 03:48:46;;;;;;;7.22;3.60;;;5.80;99.90;;;;;;5066436;28;20021;-44
2021/11/08 03:51:12;;;;;;;5.97;3.47;;;5.80;99.90;;;;;;5055951;28;20028;-43
2021/11/08 03:53:37;;;;;;;11.02;3.63;;;5.80;99.90;;;;;;5063025;28;20400;-42
2021/11/08 03:56:07;;;;;;;7.95;3.67;;;5.70;99.90;;;;;;5058216;28;20519;-43
2021/11/08 03:58:33;;;;;;;7.15;3.28;;;5.70;99.90;;;;;;5060464;28;20020;-43
2021/11/08 04:00:59;;;;;;;8.57;3.67;;;5.70;99.90;;;;;;5060353;28;20447;-40
2021/11/08 04:03:25;;;;;;;10.25;3.72;;;5.70;99.90;;;;;;5058598;28;20021;-43
2021/11/08 04:05:51;;;;;;;8.80;3.95;;;5.70;99.90;;;;;;5062840;28;20392;-44
2021/11/08 04:08:21;;;;;;;6.47;3.45;;;5.70;99.90;;;;;;5056870;28;20021;-44
2021/11/08 04:10:51;;;;;;;7.15;3.20;;;5.70;99.90;;;;;;5063872;28;20017;-44
2021/11/08 04:13:19;;;;;;;9.48;4.15;;;5.70;99.90;;;;;;5043603;28;20036;-43
2021/11/08 04:15:49;;;;;;;12.32;4.38;;;5.70;99.90;;;;;;5064291;28;20120;-43
2021/11/08 04:18:21;;;;;;;10.43;4.63;;;5.60;99.90;;;;;;5054325;28;20021;-45
2021/11/08 04:20:49;;;;;;;7.55;4.13;;;5.60;99.90;;;;;;5064098;28;20451;-41
2021/11/08 04:23:16;;;;;;;7.65;3.83;;;5.60;99.90;;;;;;5054784;28;20021;-42
2021/11/08 04:25:42;;;;;;;8.50;4.05;;;5.60;99.90;;;;;;5064416;28;20037;-47
2021/11/08 04:28:09;;;;;;;7.60;3.92;;;5.60;99.90;;;;;;5053592;28;20081;-42
2021/11/08 04:30:38;;;;;;;9.68;4.60;;;5.60;99.90;;;;;;5067297;28;20047;-42
2021/11/08 04:33:15;;;;;;;8.00;4.20;;;5.60;99.90;;;;;;5056190;28;20032;-43
2021/11/08 04:38:29;;;;;;;7.65;4.28;;;5.50;99.90;;;;;;5057009;28;20033;-43
2021/11/08 04:46:39;;;;;;;6.55;3.90;;;5.60;99.90;;;;;;5069060;28;20468;-44
2021/11/08 04:49:20;;;;;;;7.50;4.05;;;5.60;99.90;;;;;;5058522;28;20036;-42
2021/11/08 04:52:00;;;;;;;7.47;3.95;;;5.60;99.90;;;;;;5067574;28;20035;-42
2021/11/08 04:57:46;;;;;;;7.32;3.85;;;5.60;99.90;;;;;;5050587;28;20082;-42
2021/11/08 05:22:05;;;;;;;6.60;3.78;;;5.50;99.90;;;;;;5048331;28;20134;-41
2021/11/08 05:24:39;;;;;;;6.80;3.25;;;5.50;99.90;;;;;;5060306;28;20039;-44
2021/11/08 05:32:25;;;;;;;6.72;3.20;;;5.50;99.90;;;;;;5040334;28;20036;-43
2021/11/08 05:34:52;;;;;;;10.25;3.67;;;5.40;99.90;;;;;;5059656;28;20032;-43
2021/11/08 05:37:17;;;;;;;9.63;3.33;;;5.40;99.90;;;;;;5049175;28;20053;-42
2021/11/08 05:39:53;;;;;;;5.55;2.92;;;5.40;99.90;;;;;;5057077;28;20059;-42
2021/11/08 05:42:19;;;;;;;8.32;3.17;;;5.40;99.90;;;;;;5050291;28;20029;-42
2021/11/08 05:44:45;;;;;;;7.50;3.40;;;5.40;99.90;;;;;;5054806;28;20081;-43
2021/11/08 05:47:11;;;;;;;9.80;4.03;;;5.30;99.90;;;;;;5053027;28;20394;-42
2021/11/08 05:49:37;;;;;;;8.73;3.33;;;5.30;99.90;;;;;;5052764;28;20459;-42
2021/11/08 05:52:04;;;;;;;6.65;3.42;;;5.30;99.90;;;;;;5055205;28;20041;-44
2021/11/08 05:54:30;;;;;;;6.53;3.35;;;5.30;99.90;;;;;;5050803;28;20033;-42
2021/11/08 06:00:12;;;;;;;6.93;3.38;;;5.20;99.90;;;;;;5049883;28;20033;-43
2021/11/08 06:49:26;;;;;;;9.13;3.47;;;6.00;99.90;;;;;;5049661;28;20110;-43
2021/11/08 06:51:54;;;;;;;6.45;3.03;;;6.00;99.90;;;;;;5052208;28;20442;-42
2021/11/08 06:54:25;;;;;;;7.07;2.85;;;5.90;99.90;;;;;;5050888;28;20036;-45
2021/11/08 06:57:10;;;;;;;9.63;3.05;;;5.90;99.90;;;;;;5051135;28;20033;-44
2021/11/08 06:59:36;;;;;;;8.82;3.30;;;5.80;99.90;;;;;;5060851;28;20078;-44
2021/11/08 07:02:02;;;;;;;6.97;3.30;;;5.80;99.90;;;;;;5059544;28;20473;-43
2021/11/08 07:04:28;;;;;;;8.32;3.53;;;5.80;99.90;;;;;;5059494;28;20039;-43
2021/11/08 07:06:53;;;;;;;7.95;3.72;;;5.90;99.90;;;;;;5061943;28;20248;-43
2021/11/08 07:09:19;;;;;;;8.00;4.15;;;5.90;99.90;;;;;;5056794;28;20085;-44
2021/11/08 07:11:49;;;;;;;9.30;3.40;;;6.00;99.90;;;;;;5063794;28;20017;-43
2021/11/08 07:14:15;;;;;;;8.15;3.45;;;6.10;99.90;;;;;;5054203;28;20556;-43
2021/11/08 07:16:44;;;;;;;6.93;3.42;;;6.20;99.90;;;;;;5063322;28;20055;-42
2021/11/08 07:19:11;;;;;;;7.85;3.55;;;6.20;99.90;;;;;;5055783;28;20033;-41
2021/11/08 07:21:37;;;;;;;13.77;3.90;;;6.30;99.90;;;;;;5065377;28;20021;-42
2021/11/08 07:24:03;;;;;;;7.22;3.60;;;6.30;99.90;;;;;;5052431;28;20020;-43
2021/11/08 07:26:29;;;;;;;8.30;4.35;;;6.40;99.90;;;;;;5066599;28;20082;-42
2021/11/08 07:28:55;;;;;;;6.90;4.13;;;6.40;99.90;;;;;;5052621;28;20025;-43
2021/11/08 07:31:21;;;;;;;11.00;4.15;;;6.50;99.90;;;;;;5064218;28;20044;-44
2021/11/08 07:33:49;;;;;;;9.07;4.35;;;6.60;99.90;;;;;;5052372;28;20055;-43
2021/11/08 07:36:15;;;;;;;9.10;3.80;;;6.60;99.90;;;;;;5065213;28;20460;-43
2021/11/08 07:38:40;;;;;;;7.18;3.97;;;6.70;99.90;;;;;;5056590;28;20052;-44
2021/11/08 07:41:09;;;;;;;7.60;3.90;;;6.70;99.90;;;;;;5062829;28;20107;-43
2021/11/08 07:43:35;;;;;;;7.45;3.38;;;6.70;99.90;;;;;;5058697;28;20028;-43
2021/11/08 07:46:01;;;;;;;8.38;3.65;;;6.80;99.90;;;;;;5059435;28;20447;-42
2021/11/08 07:48:27;;;;;;;7.97;3.53;;;6.80;99.90;;;;;;5050282;28;20017;-43
2021/11/08 07:50:52;;;;;;;9.63;3.65;;;6.80;99.90;;;;;;5057742;28;20024;-44
2021/11/08 07:53:18;;;;;;;10.05;4.03;;;6.80;99.90;;;;;;5065235;28;20416;-43
2021/11/08 07:55:45;;;;;;;5.97;3.42;;;6.90;99.90;;;;;;5055061;28;20090;-43
2021/11/08 07:58:10;;;;;;;10.70;3.45;;;6.90;99.90;;;;;;5064583;28;20171;-43
2021/11/08 08:00:41;;;;;;;9.88;3.83;;;6.90;99.90;;;;;;5055595;28;20513;-43
2021/11/08 08:03:07;;;;;;;9.45;3.72;;;7.00;99.90;;;;;;5064996;28;20032;-42
2021/11/08 08:05:34;;;;;;;9.40;3.97;;;7.00;99.90;;;;;;5053134;28;20391;-42
2021/11/08 08:08:00;;;;;;;10.13;3.67;;;7.10;99.90;;;;;;5049996;28;20029;-43
2021/11/08 08:10:26;;;;;;;10.48;3.88;;;7.10;99.90;;;;;;5056632;28;20025;-43
2021/11/08 08:12:55;;;;;;;10.65;4.32;;;7.10;99.90;;;;;;5070059;28;20025;-44
2021/11/08 08:15:21;;;;;;;11.00;4.10;;;7.20;99.90;;;;;;5058020;28;20052;-44
2021/11/08 08:17:46;;;;;;;12.25;4.22;;;7.20;99.90;;;;;;5069715;28;20017;-42
2021/11/08 08:20:17;;;;;;;10.85;3.75;;;7.20;99.90;;;;;;5060192;28;20472;-42
2021/11/08 08:22:42;;;;;;;9.43;4.00;;;7.30;99.90;;;;;;5053847;28;20025;-42
2021/11/08 08:25:09;;;;;;;12.23;4.15;;;7.40;99.90;;;;;;5058056;28;20032;-43
2021/11/08 08:27:35;;;;;;;8.63;3.58;;;7.40;99.90;;;;;;5054567;28;20025;-43
2021/11/08 08:30:00;;;;;;;9.20;3.70;;;7.40;99.90;;;;;;5055920;28;20804;-43
2021/11/08 08:32:26;;;;;;;12.15;4.60;;;7.50;99.90;;;;;;5055995;28;20029;-43
2021/11/08 08:34:52;;;;;;;10.32;4.80;;;7.60;99.90;;;;;;5053298;28;20491;-42
2021/11/08 08:37:18;;;;;;;11.93;4.70;;;7.60;99.90;;;;;;5059680;28;20024;-43
2021/11/08 08:39:43;;;;;;;8.02;3.60;;;7.70;99.90;;;;;;5050115;28;20029;-43
2021/11/08 08:42:09;;;;;;;10.52;4.72;;;7.70;99.90;;;;;;5061868;28;20040;-42
2021/11/08 08:44:35;;;;;;;14.00;4.82;;;7.80;99.90;;;;;;5050762;28;20037;-43
2021/11/08 08:47:00;;;;;;;13.07;4.93;;;7.80;99.90;;;;;;5060562;28;20653;-43
2021/11/08 08:49:29;;;;;;;13.20;4.53;;;7.90;99.90;;;;;;5050233;28;20029;-42
2021/11/08 08:51:54;;;;;;;11.90;4.68;;;8.00;99.90;;;;;;5056699;28;20016;-43
2021/11/08 08:54:20;;;;;;;14.52;4.82;;;8.00;99.90;;;;;;5069625;28;20035;-44
2021/11/08 08:56:47;;;;;;;7.13;4.20;;;8.00;99.90;;;;;;5056328;28;20099;-43
2021/11/08 08:59:18;;;;;;;12.82;4.80;;;8.00;99.90;;;;;;5070442;28;20020;-43
2021/11/08 09:01:43;;;;;;;11.85;4.80;;;8.10;99.90;;;;;;5055880;28;20025;-42
2021/11/08 09:04:09;;;;;;;13.80;4.82;;;8.10;99.90;;;;;;5053123;28;20036;-43
2021/11/08 09:06:37;;;;;;;11.98;4.68;;;8.20;99.90;;;;;;5052604;28;20052;-43
2021/11/08 09:09:04;;;;;;;10.27;4.60;;;8.20;99.90;;;;;;5066164;28;20078;-46
2021/11/08 09:11:29;;;;;;;11.07;4.43;;;8.30;99.90;;;;;;5063430;28;20051;-44
2021/11/08 09:14:00;;;;;;;10.50;4.60;;;8.40;99.90;;;;;;5061731;28;20714;-44
2021/11/08 09:16:26;;;;;;;11.05;4.70;;;8.50;99.90;;;;;;5060977;28;20021;-43
2021/11/08 09:18:53;;;;;;;10.40;4.50;;;8.60;99.90;;;;;;5061382;28;20059;-44
2021/11/08 09:21:21;;;;;;;10.18;4.03;;;8.60;99.90;;;;;;5066925;28;20024;-43
2021/11/08 09:23:47;;;;;;;13.27;4.55;;;8.70;99.90;;;;;;5059096;28;20028;-43
2021/11/08 09:26:17;;;;;;;7.72;3.90;;;8.70;99.90;;;;;;5060362;28;20025;-43
2021/11/08 09:28:43;;;;;;;12.93;4.47;;;8.80;99.90;;;;;;5056733;28;20029;-43
2021/11/08 09:31:09;;;;;;;10.68;4.35;;;8.80;99.90;;;;;;5067531;28;20056;-42
2021/11/08 09:33:36;;;;;;;14.15;4.72;;;8.90;99.90;;;;;;5056312;28;20407;-45
2021/11/08 09:36:06;;;;;;;12.23;5.15;;;8.90;99.90;;;;;;5068287;28;20083;-42
2021/11/08 09:38:34;;;;;;;10.63;4.53;;;9.00;99.90;;;;;;5061302;28;20416;-43
2021/11/08 09:41:01;;;;;;;9.10;3.65;;;9.00;99.90;;;;;;5048617;28;20119;-42
2021/11/08 09:43:28;;;;;;;11.25;4.22;;;9.10;99.90;;;;;;5060723;28;20028;-44
2021/11/08 09:45:54;;;;;;;12.93;4.60;;;9.10;99.90;;;;;;5049019;28;20025;-43
2021/11/08 09:48:22;;;;;;;15.55;5.60;;;9.10;99.90;;;;;;5060784;28;20032;-43
2021/11/08 09:50:48;;;;;;;13.18;4.40;;;9.20;99.90;;;;;;5048175;28;20578;-44
2021/11/08 09:53:15;;;;;;;11.82;4.65;;;9.20;99.90;;;;;;5059134;28;20388;-43
2021/11/08 09:55:43;;;;;;;10.77;3.97;;;9.20;99.90;;;;;;5049654;28;20037;-44
2021/11/08 09:58:10;;;;;;;11.48;4.13;;;9.30;99.90;;;;;;5056392;28;20597;-44
2021/11/08 10:00:35;;;;;;;13.50;4.57;;;9.30;99.90;;;;;;5053582;28;20039;-44
2021/11/08 10:03:05;;;;;;;7.80;4.03;;;9.30;99.90;;;;;;5049435;28;20038;-42
2021/11/08 10:05:33;;;;;;;12.30;4.60;;;9.30;99.90;;;;;;5068239;28;20036;-43
2021/11/08 10:07:59;;;;;;;15.00;5.13;;;9.40;99.90;;;;;;5064764;28;20044;-42
2021/11/08 10:10:30;;;;;;;18.08;5.10;;;9.40;99.90;;;;;;5058932;28;20040;-43
2021/11/08 10:13:12;;;;;;;12.27;4.30;;;9.40;99.90;;;;;;5064246;28;20017;-43
2021/11/08 10:15:41;;;;;;;8.57;4.80;;;9.50;99.90;;;;;;5056812;28;20106;-42
2021/11/08 10:18:08;;;;;;;10.23;4.60;;;9.60;99.90;;;;;;5049126;28;20029;-42
2021/11/08 10:20:36;;;;;;;11.82;4.05;;;9.60;99.90;;;;;;5059315;28;20131;-43
2021/11/08 10:23:03;;;;;;;13.50;4.00;;;9.70;99.90;;;;;;5046625;28;20016;-43
2021/11/08 10:25:30;;;;;;;14.15;4.93;;;9.70;99.90;;;;;;5058501;28;20037;-42
2021/11/08 10:27:56;;;;;;;10.00;4.18;;;9.80;99.90;;;;;;5048770;28;20070;-42
2021/11/08 10:30:32;;;;;;;6.68;3.47;;;9.80;99.90;;;;;;5059581;28;20028;-42
2021/11/08 10:33:17;;;;;;;9.00;3.65;;;9.80;99.90;;;;;;5047662;28;20104;-43
2021/11/08 10:35:49;;;;;;;8.38;3.22;;;9.80;99.90;;;;;;5055803;28;20472;-43
2021/11/08 10:38:22;;;;;;;11.25;3.85;;;9.90;99.90;;;;;;5048486;28;20071;-43
2021/11/08 10:40:52;;;;;;;10.10;3.05;;;9.90;99.90;;;;;;5055238;28;20027;-43
2021/11/08 10:43:29;;;;;;;10.13;3.70;;;9.90;99.90;;;;;;5048353;28;20472;-43
2021/11/08 10:45:58;;;;;;;11.98;3.60;;;9.90;99.90;;;;;;5054525;28;20013;-43
2021/11/08 10:48:28;;;;;;;10.57;3.88;;;10.00;99.90;;;;;;5048060;28;20457;-43
2021/11/08 10:50:56;;;;;;;10.50;3.20;;;10.00;99.90;;;;;;5059710;28;20075;-42
2021/11/08 10:53:22;;;;;;;12.15;3.97;;;10.10;99.90;;;;;;5046974;28;20499;-43
2021/11/08 10:55:51;;;;;;;10.18;3.50;;;10.10;99.90;;;;;;5058215;28;20036;-42
2021/11/08 10:58:20;;;;;;;8.38;3.50;;;10.10;99.90;;;;;;5047903;28;20045;-42
2021/11/08 11:00:52;;;;;;;14.10;3.83;;;10.10;99.90;;;;;;5058042;28;20024;-42
2021/11/08 11:03:19;;;;;;;;;;;10.10;99.90;;;;;;5028452;28;20021;-45
2021/11/08 11:05:45;;;;;;;7.63;2.97;;;10.20;99.90;;;;;;5045285;28;19909;-43
2021/11/08 11:08:14;;;;;;;10.43;3.28;;;10.10;99.90;;;;;;5063576;28;20461;-42
2021/11/08 11:11:04;;;;;;;10.13;3.17;;;10.10;99.90;;;;;;5058097;28;20111;-42
2021/11/08 11:13:35;;;;;;;10.07;3.60;;;10.10;99.90;;;;;;5066120;28;20029;-42
2021/11/08 11:16:04;;;;;;;9.95;3.25;;;10.10;99.90;;;;;;5056339;28;20503;-42
2021/11/08 11:18:37;;;;;;;6.25;2.28;;;10.10;99.90;;;;;;5064862;28;20016;-42
2021/11/08 11:21:17;;;;;;;8.93;2.95;;;10.20;99.90;;;;;;5056739;28;20020;-41
2021/11/08 11:23:46;;;;;;;5.95;2.78;;;10.30;99.90;;;;;;5065442;28;20106;-43
2021/11/08 11:26:12;;;;;;;6.13;2.30;;;10.30;99.90;;;;;;5058344;28;20021;-43
2021/11/08 11:28:43;;;;;;;5.03;1.98;;;10.30;99.90;;;;;;5062077;28;20047;-42
2021/11/08 11:31:22;;;;;;;7.35;2.80;;;10.40;99.90;;;;;;5060153;28;20479;-43
2021/11/08 11:33:54;;;;;;;6.97;2.70;;;10.40;99.90;;;;;;5063229;28;20765;-43
2021/11/08 11:36:20;;;;;;;7.00;2.85;;;10.30;99.90;;;;;;5059565;28;20047;-44
2021/11/08 11:38:59;;;;;;;12.77;3.28;;;10.40;99.90;;;;;;5061988;28;20017;-42
2021/11/08 11:41:30;;;;;;;13.38;3.20;;;10.40;99.90;;;;;;5060626;28;20029;-43
2021/11/08 11:43:59;;;;;;;12.35;3.75;;;10.40;99.90;;;;;;5060972;28;20464;-42
2021/11/08 11:46:28;;;;;;;9.50;3.13;;;10.40;99.90;;;;;;5062189;28;20138;-43
2021/11/08 11:48:54;;;;;;;11.50;3.38;;;10.50;99.90;;;;;;5058735;28;20027;-44
2021/11/08 11:51:28;;;;;;;11.68;3.67;;;10.60;99.90;;;;;;5064409;28;20149;-43
2021/11/08 11:53:55;;;;;;;10.85;3.85;;;10.70;99.90;;;;;;5057343;28;20111;-42
2021/11/08 11:56:24;;;;;;;10.68;3.85;;;10.80;99.90;;;;;;5060128;28;20029;-42
2021/11/08 11:58:50;;;;;;;13.85;3.78;;;11.00;99.90;;;;;;5055694;28;20031;-44
2021/11/08 12:01:20;;;;;;;14.13;3.83;;;11.10;99.90;;;;;;5066224;28;20028;-42
2021/11/08 12:03:46;;;;;;;15.85;4.05;;;11.30;99.90;;;;;;5054850;28;20016;-42
2021/11/08 12:06:16;;;;;;;12.25;4.00;;;11.40;99.90;;;;;;5065421;28;20476;-43
2021/11/08 12:08:46;;;;;;;8.98;3.08;;;11.50;99.90;;;;;;5056060;28;20029;-44
2021/11/08 12:11:25;;;;;;;11.85;3.40;;;11.60;99.90;;;;;;5066839;28;20024;-42
2021/11/08 12:13:56;;;;;;;12.77;4.55;;;11.70;99.90;;;;;;5054911;28;20095;-43
2021/11/08 12:16:28;;;;;;;17.63;3.55;;;11.80;99.90;;;;;;5066219;28;20017;-42
2021/11/08 12:18:55;;;;;;;9.30;2.88;;;11.90;99.90;;;;;;5052150;28;20036;-42
2021/11/08 12:21:24;;;;;;;13.35;3.35;;;11.90;99.90;;;;;;5067172;28;20027;-43
2021/11/08 12:23:51;;;;;;;10.30;3.33;;;12.00;99.90;;;;;;5053102;28;20037;-43
2021/11/08 12:26:19;;;;;;;12.75;3.50;;;12.00;99.90;;;;;;5064586;28;20130;-43
2021/11/08 12:28:47;;;;;;;9.75;3.53;;;12.10;99.90;;;;;;5058487;28;20031;-42
2021/11/08 12:31:22;;;;;;;9.65;3.60;;;12.10;99.90;;;;;;5025513;28;20032;-43
2021/11/08 12:34:01;;;;;;;13.70;2.85;;;12.10;99.90;;;;;;5052498;28;20404;-43
2021/11/08 12:36:27;;;;;;;10.85;3.00;;;12.20;99.90;;;;;;5026573;28;20382;-41
2021/11/08 12:39:04;;;;;;;11.20;2.60;;;12.20;99.90;;;;;;5050858;28;20503;-42
2021/11/08 12:41:47;;;;;;;9.32;2.90;;;12.20;99.90;;;;;;5046482;28;20060;-43
2021/11/08 12:44:16;;;;;;;6.40;2.28;;;12.20;99.90;;;;;;5057820;28;20025;-43
2021/11/08 12:46:48;;;;;;;8.75;2.58;;;12.20;99.90;;;;;;5045367;28;20021;-43
2021/11/08 12:49:52;;;;;;;9.38;2.78;;;12.20;99.90;;;;;;5057288;28;20029;-42
2021/11/08 12:52:25;;;;;;;8.32;2.50;;;12.20;99.90;;;;;;5016705;28;20121;-43
2021/11/08 12:55:13;;;;;;;7.60;2.40;;;12.20;99.90;;;;;;5060228;28;20037;-43
2021/11/08 12:57:51;;;;;;;13.98;2.78;;;12.20;99.90;;;;;;5049397;28;20079;-43
2021/11/08 13:00:23;;;;;;;12.95;3.53;;;12.10;99.90;;;;;;5055934;28;20073;-43
2021/11/08 13:02:55;;;;;;;10.05;3.20;;;12.10;99.90;;;;;;5069950;28;20081;-43
2021/11/08 13:05:35;;;;;;;6.30;2.30;;;12.10;99.90;;;;;;5057176;28;20013;-43
2021/11/08 13:08:15;;;;;;;8.93;2.30;;;12.10;99.90;;;;;;5069502;28;20279;-42
2021/11/08 13:10:41;;;;;;;10.00;2.75;;;12.00;99.90;;;;;;5056455;28;20150;-43
2021/11/08 13:13:17;;;;;;;12.50;2.50;;;12.00;99.90;;;;;;5069200;28;20115;-43
2021/11/08 13:15:43;;;;;;;8.13;2.45;;;12.00;99.90;;;;;;5056654;28;20040;-42
2021/11/08 13:18:10;;;;;;;11.25;2.47;;;11.90;99.90;;;;;;5069232;28;20016;-42
2021/11/08 13:20:43;;;;;;;7.53;2.35;;;11.90;99.90;;;;;;5055213;28;20102;-44
2021/11/08 13:23:13;;;;;;;6.97;2.40;;;11.90;99.90;;;;;;5069561;28;20229;-42
2021/11/08 13:25:45;;;;;;;8.73;2.25;;;11.90;99.90;;;;;;5056863;28;20053;-42
2021/11/08 13:28:15;;;;;;;11.25;2.90;;;12.00;99.90;;;;;;5028941;28;20026;-43
2021/11/08 13:30:42;;;;;;;7.97;2.58;;;12.00;99.90;;;;;;5055283;28;20017;-44
2021/11/08 13:33:13;;;;;;;12.40;3.15;;;12.10;99.90;;;;;;5050499;28;20769;-43
2021/11/08 13:35:40;;;;;;;11.35;2.92;;;12.10;99.90;;;;;;5057467;28;20503;-42
2021/11/08 13:38:14;;;;;;;7.38;2.10;;;12.10;99.90;;;;;;5052487;28;20081;-42
2021/11/08 13:40:49;;;;;;;11.25;2.80;;;12.10;99.90;;;;;;5056784;28;20121;-43
2021/11/08 13:43:21;;;;;;;7.88;2.63;;;12.00;99.90;;;;;;5052079;28;20064;-42
2021/11/08 13:45:48;;;;;;;10.48;2.70;;;12.00;99.90;;;;;;5056680;28;20029;-43
2021/11/08 13:48:29;;;;;;;11.90;3.13;;;12.00;99.90;;;;;;5052441;28;20480;-42
2021/11/08 13:51:16;;;;;;;8.70;2.70;;;12.00;99.90;;;;;;5056097;28;20020;-44
2021/11/08 13:53:41;;;;;;;8.02;2.65;;;12.00;99.90;;;;;;5050715;28;20111;-44
2021/11/08 13:56:09;;;;;;;13.27;2.78;;;12.10;99.90;;;;;;5055491;28;20794;-43
2021/11/08 13:58:37;;;;;;;9.63;2.45;;;12.10;99.90;;;;;;5053183;28;20082;-43
2021/11/08 14:01:07;;;;;;;8.40;2.65;;;12.10;99.90;;;;;;5054494;28;20087;-43
2021/11/08 14:03:45;;;;;;;10.13;2.65;;;12.20;99.90;;;;;;5051190;28;20021;-43
2021/11/08 14:06:14;;;;;;;9.90;2.92;;;12.20;99.90;;;;;;5053176;28;20116;-43
2021/11/08 14:08:45;;;;;;;8.88;2.90;;;12.20;99.90;;;;;;5054585;28;20397;-42
2021/11/08 14:11:12;;;;;;;6.60;2.38;;;12.20;99.90;;;;;;5051811;28;20028;-43
2021/11/08 14:13:40;;;;;;;9.75;3.08;;;12.20;99.90;;;;;;5057123;28;20024;-43
2021/11/08 14:16:08;;;;;;;10.63;3.33;;;12.20;99.90;;;;;;5048931;28;20162;-43
2021/11/08 14:18:35;;;;;;;8.77;2.53;;;12.20;99.90;;;;;;5058131;28;20021;-42
2021/11/08 14:21:19;;;;;;;9.63;2.63;;;12.20;99.90;;;;;;5066390;28;20017;-43
2021/11/08 14:23:45;;;;;;;20.45;7.28;;;12.20;99.90;;;;;;5047810;28;20028;-43
2021/11/08 14:26:17;;;;;;;16.42;5.35;;;12.30;99.90;;;;;;5066593;28;20017;-36
2021/11/08 14:28:45;;;;;;;11.32;3.75;;;12.30;99.90;;;;;;5056601;28;20113;-32
2021/11/08 14:31:42;;;;;;;11.50;4.07;;;12.30;99.90;;;;;;5066052;28;20123;-42